createdAt,value
2023-02-05T00:00:49.842Z,-4.42
2023-02-05T00:03:39.035Z,-4.45
2023-02-05T00:06:07.562Z,-4.47
2023-02-05T00:08:35.809Z,-4.46
2023-02-05T00:11:09.356Z,-4.47
2023-02-05T00:13:41.142Z,-4.50
2023-02-05T00:16:20.899Z,-4.53
2023-02-05T00:18:49.180Z,-4.56
2023-02-05T00:21:19.253Z,-4.57
2023-02-05T00:23:48.083Z,-4.59
2023-02-05T00:26:16.408Z,-4.61
2023-02-05T00:28:45.610Z,-4.62
2023-02-05T00:31:16.615Z,-4.65
2023-02-05T00:33:45.459Z,-4.66
2023-02-05T00:36:14.522Z,-4.67
2023-02-05T00:38:45.300Z,-4.69
2023-02-05T00:41:14.966Z,-4.70
2023-02-05T00:43:43.966Z,-4.69
2023-02-05T00:46:13.420Z,-4.72
2023-02-05T00:48:42.887Z,-4.74
2023-02-05T00:51:11.569Z,-4.76
2023-02-05T00:53:40.744Z,-4.78
2023-02-05T00:56:09.094Z,-4.80
2023-02-05T00:58:37.222Z,-4.83
2023-02-05T01:01:06.120Z,-4.85
2023-02-05T01:03:34.369Z,-4.88
2023-02-05T01:06:03.583Z,-4.91
2023-02-05T01:08:32.244Z,-4.94
2023-02-05T01:11:01.447Z,-4.95
2023-02-05T01:13:29.629Z,-4.97
2023-02-05T01:15:57.799Z,-4.99
2023-02-05T01:18:26.329Z,-5.01
2023-02-05T01:20:54.377Z,-5.03
2023-02-05T01:23:22.520Z,-5.03
2023-02-05T01:25:50.683Z,-5.03
2023-02-05T01:28:19.053Z,-5.04
2023-02-05T01:30:49.062Z,-5.08
2023-02-05T01:33:18.488Z,-5.09
2023-02-05T01:35:46.858Z,-5.08
2023-02-05T01:38:15.666Z,-5.11
2023-02-05T01:40:44.225Z,-5.13
2023-02-05T01:43:17.530Z,-5.15
2023-02-05T01:45:58.145Z,-5.18
2023-02-05T01:48:32.801Z,-5.22
2023-02-05T01:51:06.295Z,-5.26
2023-02-05T01:53:37.434Z,-5.30
2023-02-05T01:56:20.876Z,-5.34
2023-02-05T01:58:53.828Z,-5.37
2023-02-05T02:01:23.194Z,-5.38
2023-02-05T02:03:54.575Z,-5.38
2023-02-05T02:06:22.689Z,-5.39
2023-02-05T02:08:50.729Z,-5.41
2023-02-05T02:11:21.894Z,-5.41
2023-02-05T02:13:52.033Z,-5.42
2023-02-05T02:16:21.321Z,-5.44
2023-02-05T02:18:49.906Z,-5.47
2023-02-05T02:21:45.917Z,-5.50
2023-02-05T02:24:16.957Z,-5.51
2023-02-05T02:27:00.649Z,-5.53
2023-02-05T02:29:57.241Z,-5.55
2023-02-05T02:32:51.116Z,-5.58
2023-02-05T02:35:33.303Z,-5.62
2023-02-05T02:38:33.037Z,-5.65
2023-02-05T02:41:13.284Z,-5.67
2023-02-05T02:43:50.977Z,-5.69
2023-02-05T02:46:42.771Z,-5.71
2023-02-05T02:49:28.644Z,-5.74
2023-02-05T02:52:00.660Z,-5.78
2023-02-05T02:54:29.585Z,-5.79
2023-02-05T02:56:58.891Z,-5.77
2023-02-05T02:59:29.639Z,-5.76
2023-02-05T03:02:02.606Z,-5.75
2023-02-05T03:04:33.948Z,-5.74
2023-02-05T03:07:24.611Z,-5.75
2023-02-05T03:10:00.572Z,-5.76
2023-02-05T03:12:28.742Z,-5.74
2023-02-05T03:14:57.733Z,-5.72
2023-02-05T03:17:27.768Z,-5.71
2023-02-05T03:20:42.213Z,-5.68
2023-02-05T03:23:10.395Z,-5.68
2023-02-05T03:25:39.089Z,-5.67
2023-02-05T03:28:11.674Z,-5.67
2023-02-05T03:30:49.075Z,-5.66
2023-02-05T03:33:45.061Z,-5.65
2023-02-05T03:36:25.703Z,-5.61
2023-02-05T03:39:18.027Z,-5.56
2023-02-05T03:41:59.460Z,-5.52
2023-02-05T03:44:56.300Z,-5.47
2023-02-05T03:47:32.665Z,-5.41
2023-02-05T03:50:28.743Z,-5.33
2023-02-05T03:53:23.874Z,-5.31
2023-02-05T03:56:01.490Z,-5.35
2023-02-05T03:58:36.169Z,-5.34
2023-02-05T04:01:06.088Z,-5.31
2023-02-05T04:03:34.494Z,-5.32
2023-02-05T04:06:02.878Z,-5.34
2023-02-05T04:08:31.256Z,-5.36
2023-02-05T04:10:59.529Z,-5.39
2023-02-05T04:13:28.117Z,-5.44
2023-02-05T04:15:56.654Z,-5.48
2023-02-05T04:18:25.071Z,-5.53
2023-02-05T04:20:53.255Z,-5.56
2023-02-05T04:23:24.198Z,-5.60
2023-02-05T04:25:54.303Z,-5.65
2023-02-05T04:28:24.558Z,-5.71
2023-02-05T04:30:53.410Z,-5.76
2023-02-05T04:33:21.526Z,-5.79
2023-02-05T04:35:49.898Z,-5.83
2023-02-05T04:38:18.042Z,-5.86
2023-02-05T04:40:46.002Z,-5.89
2023-02-05T04:43:14.080Z,-5.92
2023-02-05T04:45:42.133Z,-5.94
2023-02-05T04:48:10.220Z,-5.94
2023-02-05T04:50:39.315Z,-5.97
2023-02-05T04:53:07.766Z,-5.99
2023-02-05T04:55:36.333Z,-5.99
2023-02-05T04:58:04.758Z,-6.00
2023-02-05T05:00:32.932Z,-6.01
2023-02-05T05:03:01.306Z,-6.02
2023-02-05T05:05:29.354Z,-6.02
2023-02-05T05:07:59.397Z,-6.01
2023-02-05T05:10:27.769Z,-5.98
2023-02-05T05:12:55.748Z,-5.96
2023-02-05T05:15:23.807Z,-5.95
2023-02-05T05:17:51.810Z,-5.95
2023-02-05T05:20:20.258Z,-5.94
2023-02-05T05:22:48.321Z,-5.94
2023-02-05T05:25:16.399Z,-5.93
2023-02-05T05:27:44.477Z,-5.94
2023-02-05T05:30:13.158Z,-5.92
2023-02-05T05:32:41.530Z,-5.89
2023-02-05T05:35:09.703Z,-5.89
2023-02-05T05:37:37.979Z,-5.88
2023-02-05T05:40:25.352Z,-5.83
2023-02-05T05:43:19.681Z,-5.76
2023-02-05T05:45:48.198Z,-5.65
2023-02-05T05:48:16.289Z,-5.55
2023-02-05T05:50:44.514Z,-5.52
2023-02-05T05:53:12.585Z,-5.47
2023-02-05T05:55:40.955Z,-5.46
2023-02-05T05:58:09.955Z,-5.48
2023-02-05T06:00:38.735Z,-5.54
2023-02-05T06:03:07.418Z,-5.57
2023-02-05T06:05:35.762Z,-5.64
2023-02-05T06:08:04.590Z,-5.72
2023-02-05T06:10:33.491Z,-5.78
2023-02-05T06:13:01.847Z,-5.82
2023-02-05T06:15:29.915Z,-5.88
2023-02-05T06:17:58.097Z,-5.90
2023-02-05T06:20:26.140Z,-5.96
2023-02-05T06:22:54.234Z,-6.00
2023-02-05T06:25:22.301Z,-6.03
2023-02-05T06:27:50.337Z,-6.03
2023-02-05T06:30:18.779Z,-5.99
2023-02-05T06:32:46.941Z,-5.97
2023-02-05T06:35:15.534Z,-5.95
2023-02-05T06:37:47.725Z,-5.93
2023-02-05T06:40:18.364Z,-5.87
2023-02-05T06:42:46.800Z,-5.84
2023-02-05T06:45:14.827Z,-5.83
2023-02-05T06:47:42.936Z,-5.79
2023-02-05T06:50:11.626Z,-5.74
2023-02-05T06:52:40.008Z,-5.70
2023-02-05T06:55:08.600Z,-5.65
2023-02-05T06:57:37.309Z,-5.61
2023-02-05T07:00:06.690Z,-5.58
2023-02-05T07:02:34.788Z,-5.54
2023-02-05T07:05:03.318Z,-5.51
2023-02-05T07:07:31.327Z,-5.46
2023-02-05T07:09:59.717Z,-5.44
2023-02-05T07:12:28.068Z,-5.41
2023-02-05T07:14:56.122Z,-5.34
2023-02-05T07:17:24.298Z,-5.29
2023-02-05T07:19:52.564Z,-5.23
2023-02-05T07:22:20.647Z,-5.14
2023-02-05T07:24:49.019Z,-4.98
2023-02-05T07:27:17.296Z,-4.83
2023-02-05T07:29:45.470Z,-4.55
2023-02-05T07:32:13.534Z,-4.13
2023-02-05T07:34:41.708Z,-3.59
2023-02-05T07:37:13.362Z,-2.70
2023-02-05T07:39:41.638Z,-1.75
2023-02-05T07:42:09.674Z,-1.08
2023-02-05T07:44:42.909Z,-0.54
2023-02-05T07:47:10.956Z,0.15
2023-02-05T07:49:39.312Z,0.59
2023-02-05T07:52:07.313Z,1.32
2023-02-05T07:54:35.791Z,2.14
2023-02-05T07:57:06.622Z,2.79
2023-02-05T07:59:35.313Z,3.42
2023-02-05T08:02:03.619Z,4.00
2023-02-05T08:04:31.728Z,4.49
2023-02-05T08:06:59.941Z,4.69
2023-02-05T08:09:28.103Z,4.79
2023-02-05T08:11:56.167Z,4.88
2023-02-05T08:14:24.378Z,5.69
2023-02-05T08:16:52.622Z,6.43
2023-02-05T08:19:20.690Z,6.49
2023-02-05T08:21:48.875Z,6.40
2023-02-05T08:24:17.243Z,6.56
2023-02-05T08:26:45.409Z,6.94
2023-02-05T08:29:13.999Z,6.37
2023-02-05T08:31:42.236Z,4.85
2023-02-05T08:34:10.336Z,4.06
2023-02-05T08:36:38.255Z,4.06
2023-02-05T08:39:06.276Z,4.31
2023-02-05T08:41:34.372Z,4.14
2023-02-05T08:44:02.424Z,3.87
2023-02-05T08:46:40.358Z,3.22
2023-02-05T08:49:17.294Z,2.70
2023-02-05T08:51:45.408Z,2.83
2023-02-05T08:54:15.391Z,3.47
2023-02-05T08:56:45.531Z,4.32
2023-02-05T08:59:13.626Z,5.04
2023-02-05T09:01:43.251Z,5.59
2023-02-05T09:04:20.497Z,5.59
2023-02-05T09:06:50.193Z,6.01
2023-02-05T09:09:18.766Z,6.46
2023-02-05T09:11:47.555Z,7.12
2023-02-05T09:14:16.037Z,7.75
2023-02-05T09:16:44.112Z,8.34
2023-02-05T09:19:12.699Z,8.86
2023-02-05T09:21:41.673Z,8.57
2023-02-05T09:24:09.949Z,8.15
2023-02-05T09:26:38.228Z,8.14
2023-02-05T09:29:06.507Z,8.01
2023-02-05T09:31:34.650Z,7.91
2023-02-05T09:34:03.779Z,8.13
2023-02-05T09:36:32.140Z,8.29
2023-02-05T09:39:13.006Z,8.29
2023-02-05T09:42:00.857Z,7.97
2023-02-05T09:44:41.557Z,7.67
2023-02-05T09:47:26.296Z,7.88
2023-02-05T09:50:03.642Z,8.39
2023-02-05T09:52:38.914Z,8.68
2023-02-05T09:55:30.407Z,8.10
2023-02-05T09:58:12.833Z,6.55
2023-02-05T10:00:46.665Z,5.36
2023-02-05T10:03:51.474Z,4.07
2023-02-05T10:06:19.950Z,2.62
2023-02-05T10:09:12.739Z,1.77
2023-02-05T10:11:55.722Z,1.05
2023-02-05T10:15:06.481Z,0.52
2023-02-05T10:18:19.414Z,0.26
2023-02-05T10:20:47.319Z,0.69
2023-02-05T10:23:18.049Z,1.81
2023-02-05T10:25:55.196Z,2.60
2023-02-05T10:28:27.045Z,2.90
2023-02-05T10:30:57.214Z,2.98
2023-02-05T10:33:38.663Z,2.88
2023-02-05T10:36:09.725Z,2.92
2023-02-05T10:38:44.183Z,2.87
2023-02-05T10:41:14.345Z,2.98
2023-02-05T10:44:01.982Z,3.27
2023-02-05T10:46:35.215Z,3.98
2023-02-05T10:49:12.467Z,4.81
2023-02-05T10:51:43.504Z,5.41
2023-02-05T10:54:28.194Z,5.76
2023-02-05T10:57:01.055Z,5.58
2023-02-05T10:59:36.077Z,5.18
2023-02-05T11:02:08.448Z,4.26
2023-02-05T11:04:46.335Z,3.42
2023-02-05T11:07:42.282Z,2.70
2023-02-05T11:10:19.863Z,2.04
2023-02-05T11:12:58.290Z,1.35
2023-02-05T11:15:29.142Z,0.66
2023-02-05T11:18:01.568Z,0.40
2023-02-05T11:20:39.545Z,0.84
2023-02-05T11:23:24.448Z,1.47
2023-02-05T11:25:58.789Z,1.84
2023-02-05T11:28:39.909Z,2.11
2023-02-05T11:31:20.859Z,2.25
2023-02-05T11:33:49.397Z,2.25
2023-02-05T11:36:25.360Z,2.36
2023-02-05T11:38:57.247Z,2.59
2023-02-05T11:41:52.228Z,2.51
2023-02-05T11:44:35.849Z,2.24
2023-02-05T11:47:04.303Z,2.30
2023-02-05T11:49:41.766Z,2.27
2023-02-05T11:52:12.649Z,2.26
2023-02-05T11:54:46.775Z,2.25
2023-02-05T11:57:17.608Z,2.14
2023-02-05T12:00:02.781Z,2.41
2023-02-05T12:02:35.991Z,2.64
2023-02-05T12:05:13.174Z,2.55
2023-02-05T12:08:09.092Z,2.70
2023-02-05T12:10:58.142Z,2.75
2023-02-05T12:13:45.545Z,2.62
2023-02-05T12:16:35.380Z,2.68
2023-02-05T12:19:16.932Z,2.65
2023-02-05T12:21:49.138Z,2.62
2023-02-05T12:24:36.009Z,2.60
2023-02-05T12:27:34.589Z,2.36
2023-02-05T12:30:05.837Z,2.21
2023-02-05T12:32:52.438Z,2.09
2023-02-05T12:35:40.962Z,1.93
2023-02-05T12:38:44.381Z,1.79
2023-02-05T12:41:18.400Z,1.57
2023-02-05T12:43:53.745Z,1.60
2023-02-05T12:47:06.479Z,1.54
2023-02-05T12:49:49.884Z,1.65
2023-02-05T12:52:40.684Z,1.84
2023-02-05T12:55:35.289Z,1.59
2023-02-05T12:58:06.127Z,1.04
2023-02-05T13:00:53.368Z,0.70
2023-02-05T13:03:30.739Z,0.48
2023-02-05T13:06:04.130Z,0.12
2023-02-05T13:08:40.887Z,-0.16
2023-02-05T13:11:17.864Z,-0.44
2023-02-05T13:14:23.639Z,-0.78
2023-02-05T13:17:06.848Z,-1.13
2023-02-05T13:19:44.352Z,-1.39
2023-02-05T13:22:45.723Z,-1.59
2023-02-05T13:25:57.966Z,-1.68
2023-02-05T13:28:43.013Z,-1.87
2023-02-05T13:31:43.836Z,-2.01
2023-02-05T13:34:15.780Z,-2.13
2023-02-05T13:37:21.108Z,-2.28
2023-02-05T13:40:01.262Z,-2.42
2023-02-05T13:42:32.210Z,-2.56
2023-02-05T13:45:34.827Z,-2.64
2023-02-05T13:48:11.698Z,-2.73
2023-02-05T13:50:58.983Z,-2.79
2023-02-05T13:53:45.792Z,-2.86
2023-02-05T13:56:19.807Z,-2.89
2023-02-05T13:58:54.622Z,-2.92
2023-02-05T14:01:29.918Z,-2.96
2023-02-05T14:04:20.241Z,-2.98
2023-02-05T14:07:04.391Z,-2.99
2023-02-05T14:09:52.346Z,-2.96
2023-02-05T14:12:33.322Z,-2.84
2023-02-05T14:15:16.955Z,-2.82
2023-02-05T14:17:44.936Z,-2.81
2023-02-05T14:20:25.286Z,-2.80
2023-02-05T14:22:55.652Z,-2.78
2023-02-05T14:25:36.546Z,-2.81
2023-02-05T14:28:04.982Z,-2.90
2023-02-05T14:30:40.057Z,-2.98
2023-02-05T14:33:29.567Z,-3.05
2023-02-05T14:36:20.982Z,-3.10
2023-02-05T14:39:30.321Z,-3.13
2023-02-05T14:42:00.963Z,-3.17
2023-02-05T14:44:33.133Z,-3.22
2023-02-05T14:47:19.624Z,-3.25
2023-02-05T14:49:49.739Z,-3.30
2023-02-05T14:52:33.266Z,-3.33
2023-02-05T14:55:13.274Z,-3.38
2023-02-05T14:58:03.205Z,-3.46
2023-02-05T15:00:33.428Z,-3.59
2023-02-05T15:03:15.686Z,-3.68
2023-02-05T15:05:43.799Z,-3.74
2023-02-05T15:08:23.746Z,-3.80
2023-02-05T15:10:55.808Z,-3.90
2023-02-05T15:13:25.773Z,-3.99
2023-02-05T15:16:12.097Z,-4.07
2023-02-05T15:18:44.904Z,-4.12
2023-02-05T15:21:29.981Z,-4.17
2023-02-05T15:24:14.765Z,-4.25
2023-02-05T15:26:55.153Z,-4.33
2023-02-05T15:29:30.773Z,-4.39
2023-02-05T15:32:06.237Z,-4.46
2023-02-05T15:34:38.699Z,-4.51
2023-02-05T15:37:14.038Z,-4.53
2023-02-05T15:39:53.870Z,-4.53
2023-02-05T15:42:45.036Z,-4.55
2023-02-05T15:45:18.564Z,-4.62
2023-02-05T15:47:46.746Z,-4.68
2023-02-05T15:50:15.324Z,-4.69
2023-02-05T15:52:43.496Z,-4.73
2023-02-05T15:55:16.589Z,-4.78
2023-02-05T15:57:45.461Z,-4.87
2023-02-05T16:00:24.909Z,-4.96
2023-02-05T16:03:04.450Z,-5.03
2023-02-05T16:05:33.378Z,-5.11
2023-02-05T16:08:03.261Z,-5.16
2023-02-05T16:10:34.708Z,-5.19
2023-02-05T16:13:14.460Z,-5.16
2023-02-05T16:15:42.668Z,-4.93
2023-02-05T16:18:25.535Z,-4.79
2023-02-05T16:21:00.692Z,-4.87
2023-02-05T16:23:36.018Z,-4.96
2023-02-05T16:26:27.536Z,-5.03
2023-02-05T16:29:07.843Z,-5.11
2023-02-05T16:31:38.221Z,-5.18
2023-02-05T16:34:17.690Z,-5.23
2023-02-05T16:36:48.938Z,-5.27
2023-02-05T16:39:24.049Z,-5.30
2023-02-05T16:42:07.152Z,-5.33
2023-02-05T16:44:39.014Z,-5.36
2023-02-05T16:47:18.891Z,-5.38
2023-02-05T16:49:48.464Z,-5.41
2023-02-05T16:52:35.983Z,-5.23
2023-02-05T16:55:29.259Z,-5.08
2023-02-05T16:58:05.393Z,-4.99
2023-02-05T17:00:34.413Z,-4.99
2023-02-05T17:03:16.558Z,-5.10
2023-02-05T17:05:45.296Z,-5.24
2023-02-05T17:08:13.534Z,-5.33
2023-02-05T17:10:53.948Z,-5.38
2023-02-05T17:13:49.148Z,-5.47
2023-02-05T17:16:21.034Z,-5.54
2023-02-05T17:19:04.325Z,-5.58
2023-02-05T17:21:34.802Z,-5.61
2023-02-05T17:24:07.053Z,-5.63
2023-02-05T17:26:40.055Z,-5.62
2023-02-05T17:29:14.143Z,-5.60
2023-02-05T17:31:42.453Z,-5.56
2023-02-05T17:34:11.751Z,-5.54
2023-02-05T17:36:40.689Z,-5.53
2023-02-05T17:39:08.671Z,-5.50
2023-02-05T17:41:56.018Z,-5.50
2023-02-05T17:44:24.508Z,-5.50
2023-02-05T17:46:54.477Z,-5.51
2023-02-05T17:49:22.560Z,-5.37
2023-02-05T17:51:50.836Z,-5.22
2023-02-05T17:54:21.508Z,-5.27
2023-02-05T17:56:51.064Z,-5.35
2023-02-05T17:59:22.875Z,-5.42
2023-02-05T18:01:51.878Z,-5.47
2023-02-05T18:04:20.285Z,-5.54
2023-02-05T18:06:49.910Z,-5.58
2023-02-05T18:09:19.985Z,-5.61
2023-02-05T18:11:48.260Z,-5.62
2023-02-05T18:14:16.393Z,-5.63
2023-02-05T18:16:44.775Z,-5.66
2023-02-05T18:19:13.964Z,-5.68
2023-02-05T18:21:42.336Z,-5.69
2023-02-05T18:24:10.343Z,-5.69
2023-02-05T18:26:38.773Z,-5.70
2023-02-05T18:29:06.831Z,-5.72
2023-02-05T18:31:35.401Z,-5.73
2023-02-05T18:34:03.511Z,-5.76
2023-02-05T18:36:31.420Z,-5.80
2023-02-05T18:38:59.524Z,-5.83
2023-02-05T18:41:28.733Z,-5.84
2023-02-05T18:43:57.707Z,-5.87
2023-02-05T18:46:25.839Z,-5.91
2023-02-05T18:48:55.097Z,-5.94
2023-02-05T18:51:23.761Z,-5.95
2023-02-05T18:53:52.356Z,-5.95
2023-02-05T18:56:27.895Z,-5.96
2023-02-05T18:59:03.209Z,-5.97
2023-02-05T19:01:34.219Z,-6.00
2023-02-05T19:04:04.753Z,-6.04
2023-02-05T19:06:33.768Z,-6.09
2023-02-05T19:09:03.747Z,-6.08
2023-02-05T19:11:31.886Z,-5.87
2023-02-05T19:14:02.649Z,-5.83
2023-02-05T19:16:33.053Z,-5.89
2023-02-05T19:19:02.444Z,-5.94
2023-02-05T19:21:32.143Z,-6.01
2023-02-05T19:24:05.723Z,-6.06
2023-02-05T19:26:36.176Z,-6.09
2023-02-05T19:29:08.644Z,-6.11
2023-02-05T19:31:37.910Z,-6.09
2023-02-05T19:34:06.927Z,-6.10
2023-02-05T19:36:36.229Z,-6.09
2023-02-05T19:39:06.907Z,-6.15
2023-02-05T19:41:37.188Z,-6.22
2023-02-05T19:44:08.225Z,-6.26
2023-02-05T19:46:39.136Z,-6.30
2023-02-05T19:49:15.336Z,-6.28
2023-02-05T19:51:54.402Z,-6.23
2023-02-05T19:54:22.890Z,-6.27
2023-02-05T19:56:51.940Z,-6.32
2023-02-05T19:59:21.144Z,-6.35
2023-02-05T20:01:50.026Z,-6.35
2023-02-05T20:04:28.939Z,-6.37
2023-02-05T20:06:59.428Z,-6.41
2023-02-05T20:09:28.357Z,-6.41
2023-02-05T20:11:56.778Z,-6.41
2023-02-05T20:14:25.131Z,-6.42
2023-02-05T20:16:54.114Z,-6.44
2023-02-05T20:19:22.388Z,-6.45
2023-02-05T20:21:50.658Z,-6.46
2023-02-05T20:24:18.712Z,-6.47
2023-02-05T20:26:50.204Z,-6.49
2023-02-05T20:29:37.308Z,-6.52
2023-02-05T20:32:06.348Z,-6.53
2023-02-05T20:34:36.252Z,-6.52
2023-02-05T20:37:06.635Z,-6.46
2023-02-05T20:39:38.738Z,-6.44
2023-02-05T20:42:07.066Z,-6.41
2023-02-05T20:44:36.424Z,-6.39
2023-02-05T20:47:07.444Z,-6.36
2023-02-05T20:49:36.811Z,-6.37
2023-02-05T20:52:05.621Z,-6.42
2023-02-05T20:54:34.013Z,-6.49
2023-02-05T20:57:02.356Z,-6.54
2023-02-05T20:59:36.713Z,-6.58
2023-02-05T21:02:05.037Z,-6.64
2023-02-05T21:04:33.412Z,-6.67
2023-02-05T21:07:01.496Z,-6.69
2023-02-05T21:09:29.572Z,-6.69
2023-02-05T21:11:57.742Z,-6.69
2023-02-05T21:14:26.323Z,-6.69
2023-02-05T21:16:54.701Z,-6.73
2023-02-05T21:19:23.953Z,-6.82
2023-02-05T21:21:52.398Z,-6.89
2023-02-05T21:24:21.482Z,-6.93
2023-02-05T21:26:50.180Z,-6.96
2023-02-05T21:29:20.614Z,-6.97
2023-02-05T21:31:53.098Z,-6.96
2023-02-05T21:34:25.066Z,-6.97
2023-02-05T21:36:55.333Z,-6.99
2023-02-05T21:39:25.653Z,-7.01
2023-02-05T21:41:54.559Z,-7.03
2023-02-05T21:44:23.520Z,-7.05
2023-02-05T21:46:53.802Z,-7.08
2023-02-05T21:49:22.248Z,-7.10
2023-02-05T21:51:53.402Z,-7.14
2023-02-05T21:54:25.440Z,-7.16
2023-02-05T21:56:54.238Z,-7.17
2023-02-05T21:59:22.542Z,-7.18
2023-02-05T22:01:51.147Z,-7.18
2023-02-05T22:04:19.493Z,-7.20
2023-02-05T22:06:47.526Z,-7.22
2023-02-05T22:09:16.925Z,-7.23
2023-02-05T22:11:45.231Z,-7.23
2023-02-05T22:14:13.702Z,-7.23
2023-02-05T22:16:42.661Z,-7.24
2023-02-05T22:19:11.300Z,-7.25
2023-02-05T22:21:42.513Z,-7.25
2023-02-05T22:24:15.307Z,-7.26
2023-02-05T22:26:44.648Z,-7.27
2023-02-05T22:29:18.820Z,-7.29
2023-02-05T22:31:54.631Z,-7.26
2023-02-05T22:34:23.111Z,-7.25
2023-02-05T22:36:51.131Z,-7.27
2023-02-05T22:39:19.297Z,-7.27
2023-02-05T22:41:47.283Z,-7.28
2023-02-05T22:44:15.462Z,-7.27
2023-02-05T22:46:44.559Z,-7.28
2023-02-05T22:49:17.055Z,-7.31
2023-02-05T22:51:45.519Z,-7.35
2023-02-05T22:54:14.752Z,-7.35
2023-02-05T22:56:43.169Z,-7.37
2023-02-05T22:59:12.093Z,-7.39
2023-02-05T23:01:40.534Z,-7.38
2023-02-05T23:04:10.150Z,-7.33
2023-02-05T23:06:41.286Z,-7.33
2023-02-05T23:09:18.446Z,-7.33
2023-02-05T23:11:46.821Z,-7.33
2023-02-05T23:14:17.198Z,-7.35
2023-02-05T23:16:47.183Z,-7.38
2023-02-05T23:19:20.683Z,-7.39
2023-02-05T23:21:48.956Z,-7.42
2023-02-05T23:24:18.311Z,-7.46
2023-02-05T23:26:48.412Z,-7.48
2023-02-05T23:29:17.584Z,-7.50
2023-02-05T23:31:46.046Z,-7.53
2023-02-05T23:34:14.442Z,-7.54
2023-02-05T23:36:42.706Z,-7.56
2023-02-05T23:39:10.772Z,-7.57
2023-02-05T23:41:40.027Z,-7.56
2023-02-05T23:44:19.444Z,-7.56
2023-02-05T23:46:49.765Z,-7.57
2023-02-05T23:49:23.609Z,-7.57
2023-02-05T23:51:53.777Z,-7.58
2023-02-05T23:54:23.401Z,-7.59
2023-02-05T23:56:52.406Z,-7.58
2023-02-05T23:59:20.573Z,-7.57
